Time;durP1;ratioP1;P1;durP2;ratioP2;P2;SDS_P1;SDS_P2;PMS_P1;PMS_P2;Temp;Humidity;BMP_temperature;BMP_pressure;BME280_temperature;BME280_humidity;BME280_pressure;Samples;Min_cycle;Max_cycle;Signal;HPM_P1;HPM_P2
2022/10/05 00:01:26;;;;;;;4.60;2.15;;;;;;;12.02;84.95;101256.34;6000848;28;20129;-65
2022/10/05 00:04:23;;;;;;;5.75;2.33;;;;;;;11.93;85.29;101264.19;6000206;28;20047;-68
2022/10/05 00:07:19;;;;;;;8.77;2.53;;;;;;;11.72;85.64;101239.59;6009833;28;20100;-68
2022/10/05 00:10:17;;;;;;;4.50;1.95;;;;;;;11.74;85.83;101264.19;6008355;28;20069;-65
2022/10/05 00:13:33;;;;;;;9.18;2.20;;;;;;;11.56;87.12;101263.19;6009213;28;20030;-66
2022/10/05 00:16:28;;;;;;;5.65;2.15;;;;;;;11.51;87.53;101254.81;6008582;28;20065;-65
2022/10/05 00:19:30;;;;;;;6.07;1.60;;;;;;;11.52;87.42;101275.09;6002863;28;20038;-65
2022/10/05 00:22:32;;;;;;;7.68;2.17;;;;;;;11.49;87.68;101275.34;6020474;28;20471;-65
2022/10/05 00:25:28;;;;;;;4.25;2.30;;;;;;;11.50;88.35;101255.78;5998924;28;20031;-65
2022/10/05 00:28:29;;;;;;;4.87;2.10;;;;;;;11.38;88.06;101248.94;6004154;28;20535;-65
2022/10/05 00:31:30;;;;;;;6.30;2.25;;;;;;;11.40;88.73;101254.09;6011270;28;20309;-65
2022/10/05 00:34:25;;;;;;;3.17;1.90;;;;;;;11.34;88.94;101255.47;6004239;28;20475;-65
2022/10/05 00:37:20;;;;;;;4.73;2.43;;;;;;;11.29;89.19;101241.78;6008725;28;20034;-65
2022/10/05 00:40:34;;;;;;;4.20;2.00;;;;;;;11.31;89.13;101237.16;6006701;28;21065;-66
2022/10/05 00:43:41;;;;;;;4.47;2.38;;;;;;;11.37;89.80;101255.19;6004757;28;20054;-66
2022/10/05 00:46:42;;;;;;;6.13;2.08;;;;;;;11.49;89.22;101259.44;5994569;28;20037;-66
2022/10/05 00:49:58;;;;;;;4.70;2.28;;;;;;;11.52;89.45;101255.66;6013366;28;20523;-66
2022/10/05 00:53:32;;;;;;;6.65;2.20;;;;;;;11.44;89.46;101250.19;6002506;28;20043;-66
2022/10/05 00:56:46;;;;;;;4.82;2.75;;;;;;;11.57;89.08;101262.22;5994518;28;20065;-66
2022/10/05 01:00:02;;;;;;;4.97;2.38;;;;;;;11.52;89.53;101258.31;5997966;28;20394;-66
2022/10/05 01:03:08;;;;;;;5.72;2.00;;;;;;;11.55;89.24;101248.22;6000028;28;20043;-66
2022/10/05 01:06:22;;;;;;;9.10;2.17;;;;;;;11.56;88.95;101246.41;5998246;28;20038;-66
2022/10/05 01:09:33;;;;;;;8.60;2.30;;;;;;;11.52;89.06;101245.88;6001038;28;20041;-67
2022/10/05 01:12:53;;;;;;;6.22;2.42;;;;;;;11.56;89.09;101252.56;6000399;28;20062;-66
2022/10/05 01:15:55;;;;;;;11.80;2.20;;;;;;;11.44;89.25;101253.66;5995809;28;20039;-66
2022/10/05 01:19:23;;;;;;;5.25;2.05;;;;;;;11.40;89.75;101249.63;6016966;28;20546;-67
2022/10/05 01:22:34;;;;;;;4.85;2.30;;;;;;;11.46;89.67;101254.38;6017157;28;20038;-66
2022/10/05 01:25:53;;;;;;;5.22;2.53;;;;;;;11.33;90.14;101243.19;6001565;28;20030;-67
2022/10/05 01:28:58;;;;;;;4.40;2.30;;;;;;;11.39;90.13;101258.56;6002073;28;20074;-66
2022/10/05 01:32:00;;;;;;;5.85;2.10;;;;;;;11.37;90.01;101247.25;6005174;28;20035;-67
2022/10/05 01:35:22;;;;;;;4.30;2.00;;;;;;;11.36;89.97;101237.56;6017473;28;20050;-66
2022/10/05 01:38:28;;;;;;;6.68;2.55;;;;;;;11.46;89.92;101243.75;6012602;28;20031;-66
2022/10/05 01:41:27;;;;;;;3.88;2.22;;;;;;;11.48;89.67;101241.81;6016194;28;20046;-66
2022/10/05 01:44:42;;;;;;;8.23;2.15;;;;;;;11.40;89.74;101227.53;6006597;28;20125;-66
2022/10/05 01:47:43;;;;;;;5.85;2.40;;;;;;;11.40;90.24;101227.53;6007720;28;20038;-66
2022/10/05 01:50:53;;;;;;;5.47;2.63;;;;;;;11.46;89.91;101232.28;6010611;28;20142;-66
2022/10/05 01:53:55;;;;;;;6.90;2.20;;;;;;;11.47;89.58;101218.84;6000357;28;20035;-66
2022/10/05 01:57:08;;;;;;;8.50;2.15;;;;;;;11.53;90.18;101222.78;6001560;28;20371;-66
2022/10/05 02:00:07;;;;;;;4.18;2.00;;;;;;;11.50;89.85;101229.22;5999189;28;20449;-67
2022/10/05 02:03:10;;;;;;;4.93;2.03;;;;;;;11.55;90.02;101220.84;5999581;28;20038;-66
2022/10/05 02:06:13;;;;;;;5.15;2.45;;;;;;;11.51;90.03;101207.00;6015234;28;20119;-66
2022/10/05 02:09:25;;;;;;;4.78;2.53;;;;;;;11.58;89.91;101208.09;6027288;28;20026;-66
2022/10/05 02:12:23;;;;;;;6.57;2.42;;;;;;;11.60;89.55;101195.53;5999218;28;20035;-66
2022/10/05 02:15:25;;;;;;;5.38;2.58;;;;;;;11.65;89.17;101205.72;5999183;28;20038;-67
2022/10/05 02:18:23;;;;;;;5.28;2.88;;;;;;;11.61;89.63;101193.69;6000852;28;20031;-66
2022/10/05 02:21:22;;;;;;;4.43;2.35;;;;;;;11.56;89.52;101195.94;6013837;28;20046;-66
2022/10/05 02:24:22;;;;;;;6.30;2.63;;;;;;;11.56;89.35;101199.44;5999230;28;20105;-66
2022/10/05 02:27:22;;;;;;;5.68;2.58;;;;;;;11.53;90.16;101194.41;6019930;28;20065;-66
2022/10/05 02:30:18;;;;;;;9.15;3.10;;;;;;;11.41;90.13;101176.97;6001927;28;20494;-66
2022/10/05 02:33:27;;;;;;;7.32;2.22;;;;;;;11.50;90.28;101180.56;5999486;28;20030;-66
2022/10/05 02:36:28;;;;;;;5.65;3.13;;;;;;;11.46;90.17;101168.56;5999284;28;20039;-66
2022/10/05 02:39:50;;;;;;;4.97;3.42;;;;;;;11.45;90.20;101164.22;6008606;28;20046;-66
2022/10/05 02:43:19;;;;;;;5.65;2.35;;;;;;;11.55;90.28;101183.66;6000113;28;20034;-66
2022/10/05 02:46:25;;;;;;;5.88;2.38;;;;;;;11.53;89.72;101170.50;6000331;28;20418;-66
2022/10/05 02:49:27;;;;;;;4.97;2.33;;;;;;;11.57;89.99;101171.91;6009346;28;20046;-66
2022/10/05 02:52:28;;;;;;;7.25;2.85;;;;;;;11.59;89.91;101169.94;6012686;28;20121;-66
2022/10/05 02:55:30;;;;;;;6.38;2.33;;;;;;;11.60;89.68;101173.44;6002407;28;20121;-66
2022/10/05 02:58:27;;;;;;;6.22;2.80;;;;;;;11.56;90.12;101172.88;6007615;28;20039;-66
2022/10/05 03:01:27;;;;;;;5.60;2.45;;;;;;;11.64;89.29;101180.13;5997498;28;20026;-66
2022/10/05 03:04:30;;;;;;;4.25;2.17;;;;;;;11.59;89.71;101156.66;6005441;28;20146;-67
2022/10/05 03:07:39;;;;;;;5.57;3.00;;;;;;;11.65;90.04;101168.53;6002371;28;20485;-66
2022/10/05 03:10:56;;;;;;;5.05;2.50;;;;;;;11.68;90.22;101171.75;6000904;28;20035;-66
2022/10/05 03:13:54;;;;;;;6.38;2.58;;;;;;;11.73;89.34;101168.69;6001891;28;20513;-67
2022/10/05 03:16:58;;;;;;;7.60;2.63;;;;;;;11.66;89.85;101139.16;6017972;28;20046;-66
2022/10/05 03:20:06;;;;;;;5.57;2.50;;;;;;;11.69;89.50;101140.72;5996811;28;20030;-66
2022/10/05 03:23:03;;;;;;;6.97;2.40;;;;;;;11.69;89.64;101146.88;6000325;28;20026;-66
2022/10/05 03:26:46;;;;;;;6.65;2.50;;;;;;;11.67;90.12;101143.50;5999507;28;20046;-66
2022/10/05 03:29:47;;;;;;;6.97;2.47;;;;;;;11.66;90.26;101148.97;5987157;28;20070;-66
2022/10/05 03:32:57;;;;;;;8.00;2.95;;;;;;;11.61;90.74;101145.88;6006396;28;20038;-66
2022/10/05 03:36:20;;;;;;;6.20;2.95;;;;;;;11.54;91.09;101145.63;5967092;28;1048936;-66
2022/10/05 03:39:25;;;;;;;4.95;2.20;;;;;;;11.46;91.03;101157.94;6017496;28;20045;-67
2022/10/05 03:42:42;;;;;;;7.78;2.88;;;;;;;11.35;91.25;101135.03;6006966;28;20059;-66
2022/10/05 03:45:51;;;;;;;4.35;2.33;;;;;;;11.35;91.69;101141.19;6008463;28;20386;-66
2022/10/05 03:49:09;;;;;;;5.78;2.70;;;;;;;11.33;92.00;101142.28;6006249;28;20031;-66
2022/10/05 03:52:09;;;;;;;7.07;2.90;;;;;;;11.29;91.69;101125.81;6007939;28;20474;-66
2022/10/05 03:55:28;;;;;;;7.03;2.70;;;;;;;11.30;92.12;101121.34;6009749;28;20505;-66
2022/10/05 03:58:30;;;;;;;6.15;2.78;;;;;;;11.26;92.64;101119.91;6003493;28;20042;-66
2022/10/05 04:01:35;;;;;;;8.70;2.80;;;;;;;11.29;92.12;101130.28;6000078;28;20101;-66
2022/10/05 04:04:41;;;;;;;12.48;3.88;;;;;;;11.35;92.12;101135.88;5997200;28;20398;-66
2022/10/05 04:07:45;;;;;;;4.57;2.80;;;;;;;11.34;92.23;101128.88;5999630;28;20030;-66
2022/10/05 04:10:53;;;;;;;7.28;2.95;;;;;;;11.24;92.32;101124.53;6018197;28;20377;-66
2022/10/05 04:13:48;;;;;;;5.35;2.88;;;;;;;11.31;92.27;101133.59;6011213;28;20105;-66
2022/10/05 04:16:46;;;;;;;7.60;2.70;;;;;;;11.21;92.54;101106.25;6004995;28;20038;-66
2022/10/05 04:19:55;;;;;;;7.85;2.97;;;;;;;11.35;92.17;101117.28;6001498;28;20078;-66
2022/10/05 04:23:10;;;;;;;11.30;3.05;;;;;;;11.34;91.99;101120.06;6012088;28;20111;-66
2022/10/05 04:26:10;;;;;;;7.63;2.80;;;;;;;11.17;92.57;101094.25;5999043;28;20077;-67
2022/10/05 04:29:41;;;;;;;5.13;2.78;;;;;;;11.32;92.40;101100.78;6000313;28;20026;-66
2022/10/05 04:32:41;;;;;;;7.22;3.05;;;;;;;11.27;92.43;101095.06;5988829;28;20390;-67
2022/10/05 04:35:42;;;;;;;8.75;3.42;;;;;;;11.31;92.55;101096.44;6000552;28;20038;-66
2022/10/05 04:38:43;;;;;;;6.93;3.10;;;;;;;11.32;92.55;101090.16;6007307;28;20641;-66
2022/10/05 04:41:54;;;;;;;6.50;2.55;;;;;;;11.35;92.22;101087.22;6002228;28;20057;-66
2022/10/05 04:45:34;;;;;;;6.63;3.25;;;;;;;11.32;91.97;101076.88;6026356;28;20149;-66
2022/10/05 04:48:30;;;;;;;8.02;2.72;;;;;;;11.31;92.05;101080.50;6006455;28;20055;-66
2022/10/05 04:51:41;;;;;;;7.60;3.07;;;;;;;11.26;92.38;101082.75;6010848;28;20061;-66
2022/10/05 04:54:47;;;;;;;6.95;3.17;;;;;;;11.30;92.21;101079.69;6029031;28;20038;-66
2022/10/05 04:57:57;;;;;;;11.77;3.53;;;;;;;11.25;92.34;101086.41;6017215;28;20053;-66
2022/10/05 05:01:06;;;;;;;7.10;3.03;;;;;;;11.23;92.54;101088.34;5997002;28;20066;-66
2022/10/05 05:04:19;;;;;;;8.85;3.28;;;;;;;11.20;92.83;101075.34;5998779;28;20066;-66
2022/10/05 05:07:18;;;;;;;;;;;;;;;11.14;93.00;101089.22;6013349;28;20562;-66
2022/10/05 05:10:44;;;;;;;7.75;2.75;;;;;;;11.15;92.77;101090.88;6023168;28;19968;-66
2022/10/05 05:13:56;;;;;;;9.05;3.45;;;;;;;11.14;93.43;101089.22;6001161;28;20043;-66
2022/10/05 05:17:05;;;;;;;7.85;2.90;;;;;;;11.08;93.28;101076.50;5999891;28;20030;-66
2022/10/05 05:20:18;;;;;;;4.80;3.08;;;;;;;11.08;93.04;101084.44;6001382;28;20027;-66
2022/10/05 05:23:39;;;;;;;7.63;3.53;;;;;;;11.08;93.17;101095.91;6005536;28;20085;-66
2022/10/05 05:26:55;;;;;;;13.35;3.72;;;;;;;11.06;93.43;101103.16;6020894;28;20062;-66
2022/10/05 05:30:11;;;;;;;7.55;3.17;;;;;;;11.01;94.16;101109.84;6024500;28;20034;-67
2022/10/05 05:33:44;;;;;;;9.32;3.30;;;;;;;10.96;94.36;101096.16;6023549;28;20046;-67
2022/10/05 05:36:48;;;;;;;8.35;3.42;;;;;;;10.97;95.00;101097.84;6000253;28;20055;-66
2022/10/05 05:40:05;;;;;;;8.57;3.33;;;;;;;10.94;94.59;101095.47;6011389;28;20485;-66
2022/10/05 05:43:29;;;;;;;11.43;3.53;;;;;;;10.89;95.34;101105.69;6001331;28;20082;-67
2022/10/05 05:46:24;;;;;;;12.32;4.28;;;;;;;10.91;95.50;101115.16;6007014;28;20157;-66
2022/10/05 05:49:28;;;;;;;8.53;3.50;;;;;;;10.90;95.52;101116.13;6024377;28;20038;-66
2022/10/05 05:52:46;;;;;;;7.88;3.60;;;;;;;10.84;95.67;101113.22;6019786;28;20061;-66
2022/10/05 05:55:45;;;;;;;7.90;3.20;;;;;;;10.77;96.14;101108.44;6008527;28;20045;-66
2022/10/05 05:58:43;;;;;;;6.90;4.13;;;;;;;10.92;95.98;101121.31;5999146;28;20034;-67
2022/10/05 06:01:54;;;;;;;7.70;3.75;;;;;;;10.94;95.44;101114.06;6001870;28;20039;-67
2022/10/05 06:04:54;;;;;;;8.05;3.08;;;;;;;10.96;95.41;101104.13;6008232;28;20034;-66
2022/10/05 06:08:03;;;;;;;8.20;3.97;;;;;;;11.04;95.11;101121.03;5999491;28;20038;-66
2022/10/05 06:11:01;;;;;;;17.00;4.28;;;;;;;10.99;95.03;101101.22;5990052;28;20043;-66
2022/10/05 06:14:04;;;;;;;8.73;4.13;;;;;;;11.01;95.33;101107.19;6014487;28;20042;-67
2022/10/05 06:17:04;;;;;;;8.10;3.75;;;;;;;11.10;94.85;101103.72;6018878;28;20120;-67
2022/10/05 06:20:01;;;;;;;11.13;4.10;;;;;;;11.18;94.68;101101.22;6038854;28;20041;-66
2022/10/05 06:23:01;;;;;;;11.10;4.28;;;;;;;11.38;94.03;101112.66;6014990;28;20387;-66
2022/10/05 06:26:15;;;;;;;8.02;4.35;;;;;;;11.73;92.37;101108.44;5998901;28;20041;-67
2022/10/05 06:29:16;;;;;;;10.15;4.22;;;;;;;11.70;91.71;101098.09;5999753;28;20022;-67
2022/10/05 06:32:21;;;;;;;8.40;3.83;;;;;;;11.84;91.11;101116.25;6010723;28;20722;-67
2022/10/05 06:35:41;;;;;;;8.50;3.50;;;;;;;12.16;89.89;101125.63;6023585;28;20122;-67
2022/10/05 06:39:21;;;;;;;8.90;3.40;;;;;;;12.45;87.52;101123.66;6022287;28;20121;-66
2022/10/05 06:42:38;;;;;;;8.32;3.80;;;;;;;12.48;88.26;101115.41;6022409;28;20118;-67
2022/10/05 06:45:58;;;;;;;7.38;3.20;;;;;;;12.69;86.77;101123.94;6008320;28;20026;-67
2022/10/05 06:48:53;;;;;;;;;;;;;;;12.51;86.41;101112.44;6010103;28;20061;-67
2022/10/05 06:51:54;;;;;;;7.63;3.25;;;;;;;12.42;86.88;101113.31;6022590;28;19916;-67
2022/10/05 06:55:04;;;;;;;7.28;3.05;;;;;;;12.59;86.48;101125.00;6022728;28;20053;-67
2022/10/05 06:58:09;;;;;;;9.55;3.92;;;;;;;12.53;86.51;101123.78;6022763;28;20038;-67
2022/10/05 07:01:29;;;;;;;6.32;3.38;;;;;;;12.40;87.16;101112.66;6009375;28;20146;-67
2022/10/05 07:04:44;;;;;;;9.02;3.50;;;;;;;12.40;86.95;101113.50;6029632;28;20031;-67
2022/10/05 07:08:22;;;;;;;8.55;3.47;;;;;;;12.45;87.56;101126.34;5998948;28;20109;-67
2022/10/05 07:11:39;;;;;;;8.15;3.35;;;;;;;12.52;87.42;101122.13;5990123;28;20607;-67
2022/10/05 07:15:06;;;;;;;8.18;3.13;;;;;;;12.51;87.42;101125.75;5997366;28;20541;-67
2022/10/05 07:18:34;;;;;;;9.23;3.55;;;;;;;12.72;86.53;101123.66;5991645;28;20735;-67
2022/10/05 07:21:43;;;;;;;7.38;3.65;;;;;;;12.87;86.39;101090.22;5995017;28;20042;-67
2022/10/05 07:24:42;;;;;;;6.57;3.20;;;;;;;13.19;84.61;101110.19;5996821;28;20038;-66
2022/10/05 07:27:47;;;;;;;7.68;3.15;;;;;;;13.50;82.99;101092.81;6021018;28;20030;-67
2022/10/05 07:30:55;;;;;;;8.50;3.50;;;;;;;14.03;80.98;101096.13;6020745;28;20022;-67
2022/10/05 07:34:01;;;;;;;10.85;3.38;;;;;;;14.49;79.12;101108.19;5999740;28;20074;-67
2022/10/05 07:40:39;;;;;;;7.95;3.20;;;;;;;14.44;78.75;101104.34;5997974;28;20038;-67
2022/10/05 07:43:52;;;;;;;7.07;3.40;;;;;;;14.61;78.71;101116.75;6021297;28;20068;-67
2022/10/05 07:46:53;;;;;;;10.63;3.13;;;;;;;14.41;79.54;101100.16;6012496;28;20046;-67
2022/10/05 07:50:10;;;;;;;8.98;3.20;;;;;;;14.61;78.69;101116.75;6009606;28;20157;-67
2022/10/05 07:53:36;;;;;;;6.10;2.90;;;;;;;14.41;79.56;101099.31;5997138;28;20467;-66
2022/10/05 07:56:43;;;;;;;6.00;3.13;;;;;;;14.11;80.34;101098.84;6016287;28;20070;-67
2022/10/05 07:59:43;;;;;;;;;;;;;;;14.18;80.81;101112.38;6012555;28;20035;-67
2022/10/05 08:02:55;;;;;;;6.65;3.40;;;;;;;14.09;80.92;101108.84;6022020;28;19909;-67
2022/10/05 08:05:50;;;;;;;11.38;3.50;;;;;;;14.01;81.86;101111.47;6001084;28;20483;-67
2022/10/05 08:08:49;;;;;;;10.23;3.33;;;;;;;14.10;81.66;101099.84;5998680;28;20027;-67
2022/10/05 08:11:52;;;;;;;11.60;3.55;;;;;;;13.96;81.95;101099.59;6001912;28;20030;-66
2022/10/05 08:14:47;;;;;;;5.90;3.10;;;;;;;14.05;83.33;101103.97;6001969;28;20069;-67
2022/10/05 08:17:45;;;;;;;5.73;3.27;;;;;;;13.99;83.83;101116.13;6002619;28;20035;-67
2022/10/05 08:20:46;;;;;;;7.68;3.47;;;;;;;14.04;82.15;101095.13;6025821;28;20018;-67
2022/10/05 08:23:45;;;;;;;7.70;3.80;;;;;;;14.01;82.69;101114.13;6016279;28;20039;-67
2022/10/05 08:26:49;;;;;;;9.55;4.15;;;;;;;13.97;83.43;101107.41;6003015;28;20039;-67
2022/10/05 08:30:04;;;;;;;8.13;3.85;;;;;;;14.22;81.86;101108.38;6001762;28;20041;-67
2022/10/05 08:33:09;;;;;;;8.73;3.70;;;;;;;13.93;83.60;101100.75;6006903;28;20042;-67
2022/10/05 08:36:11;;;;;;;7.03;3.60;;;;;;;14.13;83.31;101102.16;6024773;28;20041;-67
2022/10/05 08:39:12;;;;;;;8.95;3.50;;;;;;;14.46;81.25;101102.38;6005798;28;20795;-67
2022/10/05 08:42:19;;;;;;;10.52;3.60;;;;;;;14.99;79.94;101113.50;6000859;28;20037;-67
2022/10/05 08:45:39;;;;;;;7.05;3.05;;;;;;;15.24;78.67;101117.88;6002000;28;20038;-67
2022/10/05 08:48:53;;;;;;;5.50;2.55;;;;;;;15.17;77.81;101111.50;6015676;28;20038;-67
2022/10/05 08:52:15;;;;;;;8.25;3.08;;;;;;;14.92;78.44;101120.47;6025630;28;20038;-66
2022/10/05 08:55:22;;;;;;;9.40;3.38;;;;;;;14.76;79.65;101125.78;6006272;28;20039;-67
2022/10/05 08:58:45;;;;;;;7.20;2.90;;;;;;;15.06;79.69;101122.50;6001076;28;20027;-67
2022/10/05 09:01:59;;;;;;;10.65;3.90;;;;;;;15.16;77.24;101101.84;5993100;28;20125;-67
2022/10/05 09:05:06;;;;;;;7.45;2.85;;;;;;;15.07;79.18;101118.00;6003762;28;20066;-67
2022/10/05 09:08:15;;;;;;;8.43;3.35;;;;;;;15.14;78.65;101119.84;6001618;28;20356;-67
2022/10/05 09:11:37;;;;;;;5.47;3.08;;;;;;;15.41;77.48;101122.22;5999864;28;20039;-67
2022/10/05 09:15:08;;;;;;;7.18;3.53;;;;;;;15.61;77.16;101105.84;6001909;28;20035;-67
2022/10/05 09:18:40;;;;;;;6.82;3.67;;;;;;;15.89;75.67;101099.13;6000433;28;20040;-66
2022/10/05 09:22:03;;;;;;;6.25;3.03;;;;;;;16.09;74.33;101108.41;6000947;28;20026;-67
2022/10/05 09:25:36;;;;;;;6.05;3.15;;;;;;;16.06;75.09;101112.28;5993371;28;20049;-67
2022/10/05 09:28:40;;;;;;;;;;;;;;;16.06;74.75;101108.78;6016488;28;20042;-67
2022/10/05 09:31:40;;;;;;;11.40;3.53;;;;;;;16.12;74.87;101112.59;6007829;28;19914;-67
2022/10/05 09:34:48;;;;;;;5.75;3.38;;;;;;;16.07;74.31;101107.78;6023331;28;20476;-67
2022/10/05 09:38:10;;;;;;;6.25;3.42;;;;;;;16.19;73.63;101100.22;6024885;28;20034;-67
2022/10/05 09:41:28;;;;;;;9.18;3.85;;;;;;;16.38;73.90;101105.16;6024016;28;20497;-67
2022/10/05 09:44:56;;;;;;;7.68;3.30;;;;;;;16.40;73.36;101114.69;6004789;28;20360;-67
2022/10/05 09:48:28;;;;;;;10.38;3.38;;;;;;;16.39;73.76;101099.63;6003913;28;20027;-67
2022/10/05 09:51:42;;;;;;;6.38;3.55;;;;;;;16.25;74.52;101111.03;6016275;28;20118;-67
2022/10/05 09:54:55;;;;;;;9.25;3.55;;;;;;;16.10;74.82;101091.38;6000884;28;20047;-67
2022/10/05 09:58:29;;;;;;;7.82;3.58;;;;;;;16.27;75.24;101102.84;6009056;28;20038;-67
2022/10/05 10:01:33;;;;;;;7.10;2.92;;;;;;;16.28;75.27;101121.41;6011287;28;20038;-67
2022/10/05 10:04:47;;;;;;;7.25;2.90;;;;;;;16.33;74.69;101112.88;6014735;28;20117;-67
2022/10/05 10:07:56;;;;;;;5.70;3.00;;;;;;;16.11;73.23;101111.78;6014984;28;20390;-67
2022/10/05 10:11:10;;;;;;;5.43;3.03;;;;;;;15.95;73.92;101115.31;5999674;28;20034;-67
2022/10/05 10:14:48;;;;;;;8.25;3.22;;;;;;;15.87;74.03;101114.53;6012837;28;20034;-67
2022/10/05 10:18:00;;;;;;;8.35;2.75;;;;;;;15.98;74.25;101122.19;5999669;28;20422;-67
2022/10/05 10:21:20;;;;;;;7.38;3.67;;;;;;;16.06;72.77;101124.84;6012363;28;20058;-67
2022/10/05 10:24:27;;;;;;;5.45;2.50;;;;;;;16.24;72.77;101120.09;6019942;28;20030;-68
2022/10/05 10:27:39;;;;;;;7.07;2.60;;;;;;;16.12;71.45;101094.69;6006060;28;20030;-67
2022/10/05 10:30:53;;;;;;;4.95;3.08;;;;;;;16.18;71.84;101096.69;5988473;28;20027;-67
2022/10/05 10:34:04;;;;;;;6.18;2.30;;;;;;;16.42;71.72;101103.78;5997372;28;20651;-67
2022/10/05 10:37:44;;;;;;;5.22;2.90;;;;;;;16.43;70.98;101087.56;5988704;28;20127;-68
2022/10/05 10:41:10;;;;;;;7.57;3.13;;;;;;;16.38;70.63;101092.63;6001323;28;20046;-67
2022/10/05 10:44:26;;;;;;;6.70;2.83;;;;;;;16.55;70.41;101091.53;6023484;28;20034;-67
2022/10/05 10:47:42;;;;;;;6.20;2.63;;;;;;;16.55;70.43;101074.66;6017735;28;20031;-68
2022/10/05 10:50:56;;;;;;;7.82;3.05;;;;;;;16.52;70.22;101088.38;6001950;28;20053;-65
2022/10/05 10:54:27;;;;;;;7.95;3.20;;;;;;;16.40;71.10;101087.06;6016667;28;20038;-65
2022/10/05 10:57:28;;;;;;;4.20;2.60;;;;;;;16.27;70.37;101078.78;5995183;28;20049;-66
2022/10/05 11:00:36;;;;;;;6.03;3.13;;;;;;;16.17;70.75;101091.53;5998404;28;20047;-66
2022/10/05 11:04:00;;;;;;;6.55;3.40;;;;;;;16.10;70.44;101086.03;6013021;28;20030;-66
2022/10/05 11:06:58;;;;;;;9.90;3.42;;;;;;;16.05;72.06;101096.41;5996598;28;20106;-65
2022/10/05 11:10:21;;;;;;;6.32;3.33;;;;;;;16.00;71.48;101090.75;5999805;28;20046;-66
2022/10/05 11:13:38;;;;;;;5.93;3.47;;;;;;;15.90;72.00;101090.94;5999231;28;20386;-65
2022/10/05 11:16:45;;;;;;;7.53;3.45;;;;;;;15.84;73.14;101088.13;6002178;28;20056;-66
2022/10/05 11:19:44;;;;;;;5.78;2.90;;;;;;;15.82;73.10;101082.06;6005791;28;20077;-65
2022/10/05 11:22:55;;;;;;;5.57;3.50;;;;;;;15.92;73.04;101083.59;5997260;28;20074;-65
2022/10/05 11:26:05;;;;;;;7.28;3.60;;;;;;;16.11;72.50;101087.69;5999087;28;20122;-66
2022/10/05 11:29:16;;;;;;;5.38;3.42;;;;;;;16.10;72.13;101061.94;5998674;28;20035;-66
2022/10/05 11:32:26;;;;;;;4.68;2.97;;;;;;;16.09;72.51;101069.13;5997858;28;20097;-66
2022/10/05 11:35:24;;;;;;;7.82;3.50;;;;;;;16.40;72.57;101068.34;5998023;28;20041;-65
2022/10/05 11:38:36;;;;;;;6.35;3.40;;;;;;;16.36;71.51;101062.47;5998740;28;20122;-66
2022/10/05 11:41:43;;;;;;;6.38;3.75;;;;;;;16.22;71.33;101063.25;5998069;28;20034;-65
2022/10/05 11:45:00;;;;;;;7.05;3.92;;;;;;;16.30;71.28;101057.00;5999762;28;20129;-65
2022/10/05 11:48:14;;;;;;;8.13;3.88;;;;;;;16.49;71.34;101059.25;6027403;28;20050;-66
2022/10/05 11:51:22;;;;;;;7.28;3.53;;;;;;;16.48;70.73;101046.88;6006954;28;20406;-66
2022/10/05 11:54:38;;;;;;;5.65;3.97;;;;;;;16.55;70.82;101040.66;6008513;28;20050;-66
2022/10/05 11:57:53;;;;;;;4.72;2.90;;;;;;;16.74;70.41;101034.00;6001770;28;20031;-66
2022/10/05 12:00:58;;;;;;;8.07;3.63;;;;;;;16.52;71.35;101032.94;6002403;28;20077;-65
2022/10/05 12:04:15;;;;;;;7.72;3.72;;;;;;;16.38;71.45;101036.41;6018212;28;20490;-66
2022/10/05 12:07:32;;;;;;;6.80;3.10;;;;;;;16.45;70.27;101026.63;6003027;28;20034;-66
2022/10/05 12:10:43;;;;;;;5.07;3.10;;;;;;;16.26;72.39;101010.19;6001186;28;20401;-66
2022/10/05 12:13:50;;;;;;;5.57;3.08;;;;;;;16.48;70.50;101025.44;6001987;28;20039;-68
2022/10/05 12:16:50;;;;;;;;;;;;;;;16.74;70.82;101009.09;6007400;28;20042;-66
2022/10/05 12:20:14;;;;;;;7.15;3.35;;;;;;;17.04;69.06;101017.03;6025038;28;19914;-66
2022/10/05 12:23:16;;;;;;;5.63;2.70;;;;;;;17.47;66.79;100990.50;6020865;28;20554;-65
2022/10/05 12:26:35;;;;;;;5.72;2.92;;;;;;;17.67;66.03;100980.91;6016855;28;20042;-66
2022/10/05 12:29:41;;;;;;;5.20;2.33;;;;;;;17.69;65.23;100979.72;6019829;28;20117;-65
2022/10/05 12:32:48;;;;;;;5.25;2.17;;;;;;;17.77;64.44;100976.13;6003441;28;20041;-66
2022/10/05 12:35:49;;;;;;;4.88;2.10;;;;;;;17.47;65.68;100964.53;5993023;28;20079;-67
2022/10/05 12:39:02;;;;;;;5.97;1.98;;;;;;;17.38;66.23;100968.31;6001332;28;20035;-66
2022/10/05 12:42:21;;;;;;;6.38;2.22;;;;;;;17.06;68.04;100969.47;5999905;28;20034;-66
2022/10/05 12:45:45;;;;;;;5.78;2.00;;;;;;;16.62;69.42;100963.97;6001913;28;20510;-66
2022/10/05 12:48:56;;;;;;;4.45;2.20;;;;;;;16.44;69.48;100952.69;6029955;28;20046;-66
2022/10/05 12:52:04;;;;;;;5.05;2.38;;;;;;;16.27;69.28;100940.44;6002920;28;20721;-66
2022/10/05 12:55:44;;;;;;;5.60;2.30;;;;;;;16.23;69.42;100957.84;5999485;28;20035;-66
2022/10/05 12:59:04;;;;;;;4.10;1.70;;;;;;;16.21;70.13;100959.03;6001167;28;20062;-66
2022/10/05 13:02:24;;;;;;;5.03;1.95;;;;;;;16.21;69.66;100943.81;6005132;28;20030;-65
2022/10/05 13:05:32;;;;;;;8.65;2.35;;;;;;;16.33;69.65;100952.28;5999896;28;20501;-66
2022/10/05 13:08:47;;;;;;;3.25;1.70;;;;;;;16.55;68.73;100949.63;6017162;28;20030;-66
2022/10/05 13:11:42;;;;;;;4.20;1.95;;;;;;;16.84;68.03;100935.50;6005007;28;20049;-68
2022/10/05 13:15:02;;;;;;;3.37;1.77;;;;;;;17.17;66.44;100936.03;6007353;28;20038;-66
2022/10/05 13:18:25;;;;;;;3.58;2.03;;;;;;;17.30;64.71;100930.88;6001416;28;20038;-66
2022/10/05 13:21:47;;;;;;;3.28;1.60;;;;;;;17.72;64.59;100914.97;6001654;28;20077;-65
2022/10/05 13:25:00;;;;;;;4.53;1.98;;;;;;;18.15;63.17;100915.06;6010286;28;20158;-66
2022/10/05 13:28:18;;;;;;;5.05;2.00;;;;;;;18.23;62.28;100917.63;6000635;28;20035;-66
2022/10/05 13:31:23;;;;;;;3.92;2.10;;;;;;;18.18;63.95;100909.31;6005309;28;20038;-66
2022/10/05 13:34:34;;;;;;;4.10;2.30;;;;;;;18.40;63.29;100910.97;6011722;28;20122;-66
2022/10/05 13:38:00;;;;;;;3.25;1.92;;;;;;;18.57;62.69;100916.94;6001304;28;20053;-66
2022/10/05 13:41:12;;;;;;;4.90;2.17;;;;;;;18.44;62.88;100928.38;5999978;28;20039;-65
2022/10/05 13:44:31;;;;;;;3.65;1.98;;;;;;;18.40;62.11;100909.13;6000577;28;20387;-66
2022/10/05 13:47:33;;;;;;;3.75;1.95;;;;;;;18.23;63.19;100914.94;6009492;28;20031;-66
2022/10/05 13:50:32;;;;;;;4.85;1.95;;;;;;;18.28;63.16;100910.66;6000620;28;20054;-66
2022/10/05 13:53:38;;;;;;;5.78;1.85;;;;;;;18.31;62.92;100898.69;5993044;28;20039;-66
2022/10/05 13:56:42;;;;;;;4.20;1.90;;;;;;;18.33;62.93;100893.97;5999727;28;20023;-66
2022/10/05 13:59:57;;;;;;;3.03;2.13;;;;;;;17.90;63.93;100879.69;5999414;28;20051;-66
2022/10/05 14:02:55;;;;;;;4.45;2.03;;;;;;;18.00;64.09;100890.94;5999879;28;20038;-67
2022/10/05 14:05:56;;;;;;;3.78;2.08;;;;;;;18.03;64.50;100863.72;5998850;28;20034;-66
2022/10/05 14:08:52;;;;;;;4.82;2.00;;;;;;;18.16;64.86;100860.31;5998391;28;20472;-66
2022/10/05 14:12:02;;;;;;;3.65;2.13;;;;;;;17.97;64.81;100869.00;5998015;28;20031;-66
2022/10/05 14:15:21;;;;;;;2.90;1.98;;;;;;;17.99;64.56;100867.78;5997983;28;20125;-65
2022/10/05 14:18:24;;;;;;;7.45;2.10;;;;;;;17.97;64.24;100859.09;6000329;28;20026;-65
2022/10/05 14:21:28;;;;;;;4.53;1.92;;;;;;;17.96;64.65;100862.84;5999557;28;20367;-66
2022/10/05 14:24:33;;;;;;;4.05;2.15;;;;;;;17.88;64.57;100856.75;5999541;28;20046;-66
2022/10/05 14:27:32;;;;;;;4.05;2.20;;;;;;;17.88;64.94;100848.69;6000759;28;20093;-66
2022/10/05 14:30:29;;;;;;;10.52;2.53;;;;;;;17.88;64.89;100833.44;6001247;28;20093;-66
2022/10/05 14:33:30;;;;;;;3.25;1.95;;;;;;;17.97;65.01;100836.81;6019186;28;20463;-66
2022/10/05 14:36:34;;;;;;;5.18;2.20;;;;;;;17.95;64.29;100822.75;5997760;28;20039;-65
2022/10/05 14:39:33;;;;;;;4.40;1.90;;;;;;;17.99;64.23;100834.78;6000233;28;20673;-66
2022/10/05 14:42:29;;;;;;;3.45;1.52;;;;;;;18.15;63.92;100811.19;5999338;28;20039;-65
2022/10/05 14:45:28;;;;;;;3.28;1.80;;;;;;;18.31;63.49;100812.78;5996966;28;20105;-66
2022/10/05 14:48:28;;;;;;;4.05;1.90;;;;;;;18.10;63.64;100810.91;6008751;28;20574;-66